<?xml version="1.0" encoding="utf-8"?>
<gpx xmlns:xsi="http://www.w3.org/2001/XMLSchema-instance" xmlns:xsd="http://www.w3.org/2001/XMLSchema" version="1.1" creator="Shapelink.com" xmlns="http://www.topografix.com/GPX/1/1" xmlns:gpxtpx="http://www.garmin.com/xmlschemas/TrackPointExtension/v1">
  <metadata>
    <name>Cykling 12.46 km, 2019-09-16</name>
    <desc></desc>
    <author><name>Henrik Staffas</name></author> 
    <time>2019-09-16T07:39:23Z</time>
  </metadata>
  <trk>
    <name>Cykling 12.46 km, 2019-09-16</name>
    <trkseg>
      <trkpt lat="59.421799814326" lon="17.966467114677">
        <ele>39.6</ele>
        <time>2019-09-16T07:39:23Z</time>
      </trkpt>
      <trkpt lat="59.421773159884" lon="17.966379859098">
        <ele>40.4</ele>
        <time>2019-09-16T07:39:27Z</time>
      </trkpt>
      <trkpt lat="59.421404607741" lon="17.96548031359">
        <ele>39.4</ele>
        <time>2019-09-16T07:39:39Z</time>
      </trkpt>
      <trkpt lat="59.421148037782" lon="17.964672801344">
        <ele>38.6</ele>
        <time>2019-09-16T07:39:47Z</time>
      </trkpt>
      <trkpt lat="59.421133453276" lon="17.964430480615">
        <ele>38.2</ele>
        <time>2019-09-16T07:39:49Z</time>
      </trkpt>
      <trkpt lat="59.42117586569" lon="17.964193440483">
        <ele>37.6</ele>
        <time>2019-09-16T07:39:51Z</time>
      </trkpt>
      <trkpt lat="59.421248872039" lon="17.963811142024">
        <ele>36.2</ele>
        <time>2019-09-16T07:39:54Z</time>
      </trkpt>
      <trkpt lat="59.42128650677" lon="17.963541161025">
        <ele>35.4</ele>
        <time>2019-09-16T07:39:56Z</time>
      </trkpt>
      <trkpt lat="59.421287177322" lon="17.963288530559">
        <ele>35.2</ele>
        <time>2019-09-16T07:39:58Z</time>
      </trkpt>
      <trkpt lat="59.421218194285" lon="17.9626296294">
        <ele>35.6</ele>
        <time>2019-09-16T07:40:04Z</time>
      </trkpt>
      <trkpt lat="59.421069080284" lon="17.961558254942">
        <ele>35.2</ele>
        <time>2019-09-16T07:40:14Z</time>
      </trkpt>
      <trkpt lat="59.420902531931" lon="17.960443294604">
        <ele>34</ele>
        <time>2019-09-16T07:40:23Z</time>
      </trkpt>
      <trkpt lat="59.420812258868" lon="17.959769222206">
        <ele>35</ele>
        <time>2019-09-16T07:40:29Z</time>
      </trkpt>
      <trkpt lat="59.420766326056" lon="17.959458086078">
        <ele>36.2</ele>
        <time>2019-09-16T07:40:32Z</time>
      </trkpt>
      <trkpt lat="59.420727936954" lon="17.959182656844">
        <ele>37.4</ele>
        <time>2019-09-16T07:40:36Z</time>
      </trkpt>
      <trkpt lat="59.420590389975" lon="17.958985598375">
        <ele>38.4</ele>
        <time>2019-09-16T07:40:41Z</time>
      </trkpt>
      <trkpt lat="59.420497099428" lon="17.9590002667">
        <ele>38.2</ele>
        <time>2019-09-16T07:40:43Z</time>
      </trkpt>
      <trkpt lat="59.419968369176" lon="17.959396227656">
        <ele>38</ele>
        <time>2019-09-16T07:40:52Z</time>
      </trkpt>
      <trkpt lat="59.419424635323" lon="17.959491110764">
        <ele>37.6</ele>
        <time>2019-09-16T07:40:59Z</time>
      </trkpt>
      <trkpt lat="59.418844356386" lon="17.959698395151">
        <ele>36.8</ele>
        <time>2019-09-16T07:41:08Z</time>
      </trkpt>
      <trkpt lat="59.418281092706" lon="17.959883635141">
        <ele>37.8</ele>
        <time>2019-09-16T07:41:16Z</time>
      </trkpt>
      <trkpt lat="59.417700394674" lon="17.96010248655">
        <ele>37.4</ele>
        <time>2019-09-16T07:41:25Z</time>
      </trkpt>
      <trkpt lat="59.417344583019" lon="17.960244643574">
        <ele>38.4</ele>
        <time>2019-09-16T07:41:31Z</time>
      </trkpt>
      <trkpt lat="59.416830437273" lon="17.960677903985">
        <ele>39.6</ele>
        <time>2019-09-16T07:41:40Z</time>
      </trkpt>
      <trkpt lat="59.416344454711" lon="17.961134214621">
        <ele>40.6</ele>
        <time>2019-09-16T07:41:49Z</time>
      </trkpt>
      <trkpt lat="59.41605703936" lon="17.9614142539">
        <ele>41.6</ele>
        <time>2019-09-16T07:41:54Z</time>
      </trkpt>
      <trkpt lat="59.415825531282" lon="17.96165565262">
        <ele>42.6</ele>
        <time>2019-09-16T07:41:58Z</time>
      </trkpt>
      <trkpt lat="59.415767528534" lon="17.961718684508">
        <ele>42.6</ele>
        <time>2019-09-16T07:41:59Z</time>
      </trkpt>
      <trkpt lat="59.415299818514" lon="17.96239912715">
        <ele>43</ele>
        <time>2019-09-16T07:42:08Z</time>
      </trkpt>
      <trkpt lat="59.415078620173" lon="17.962833477208">
        <ele>44.2</ele>
        <time>2019-09-16T07:42:13Z</time>
      </trkpt>
      <trkpt lat="59.414998656847" lon="17.963013185144">
        <ele>45.6</ele>
        <time>2019-09-16T07:42:15Z</time>
      </trkpt>
      <trkpt lat="59.414784247845" lon="17.963568150743">
        <ele>46</ele>
        <time>2019-09-16T07:42:21Z</time>
      </trkpt>
      <trkpt lat="59.414507728964" lon="17.964596777511">
        <ele>47</ele>
        <time>2019-09-16T07:42:30Z</time>
      </trkpt>
      <trkpt lat="59.414370684899" lon="17.965097847493">
        <ele>48.2</ele>
        <time>2019-09-16T07:42:35Z</time>
      </trkpt>
      <trkpt lat="59.414225678029" lon="17.965598917475">
        <ele>49.4</ele>
        <time>2019-09-16T07:42:40Z</time>
      </trkpt>
      <trkpt lat="59.414119814632" lon="17.96596394922">
        <ele>50.6</ele>
        <time>2019-09-16T07:42:44Z</time>
      </trkpt>
      <trkpt lat="59.413994086132" lon="17.966362592384">
        <ele>52</ele>
        <time>2019-09-16T07:42:49Z</time>
      </trkpt>
      <trkpt lat="59.413912027331" lon="17.966580270327">
        <ele>53.2</ele>
        <time>2019-09-16T07:42:52Z</time>
      </trkpt>
      <trkpt lat="59.413797446758" lon="17.966891993188">
        <ele>54.2</ele>
        <time>2019-09-16T07:42:56Z</time>
      </trkpt>
      <trkpt lat="59.413644309445" lon="17.967166919508">
        <ele>55.2</ele>
        <time>2019-09-16T07:43:00Z</time>
      </trkpt>
      <trkpt lat="59.413509109398" lon="17.967373617162">
        <ele>56.2</ele>
        <time>2019-09-16T07:43:03Z</time>
      </trkpt>
      <trkpt lat="59.413463260405" lon="17.967435475584">
        <ele>56.6</ele>
        <time>2019-09-16T07:43:04Z</time>
      </trkpt>
      <trkpt lat="59.413342309588" lon="17.96760177248">
        <ele>57.6</ele>
        <time>2019-09-16T07:43:07Z</time>
      </trkpt>
      <trkpt lat="59.41321892802" lon="17.967734457957">
        <ele>58.8</ele>
        <time>2019-09-16T07:43:10Z</time>
      </trkpt>
      <trkpt lat="59.412922292579" lon="17.967986836966">
        <ele>60.2</ele>
        <time>2019-09-16T07:43:17Z</time>
      </trkpt>
      <trkpt lat="59.412837048656" lon="17.968041486954">
        <ele>61.4</ele>
        <time>2019-09-16T07:43:19Z</time>
      </trkpt>
      <trkpt lat="59.412653485046" lon="17.968135112777">
        <ele>62.4</ele>
        <time>2019-09-16T07:43:23Z</time>
      </trkpt>
      <trkpt lat="59.412241766118" lon="17.968231336989">
        <ele>62.6</ele>
        <time>2019-09-16T07:43:31Z</time>
      </trkpt>
      <trkpt lat="59.411958122622" lon="17.968168975653">
        <ele>62.8</ele>
        <time>2019-09-16T07:43:36Z</time>
      </trkpt>
      <trkpt lat="59.411844464058" lon="17.968192444973">
        <ele>63.6</ele>
        <time>2019-09-16T07:43:38Z</time>
      </trkpt>
      <trkpt lat="59.4112927674" lon="17.968376595316">
        <ele>63.4</ele>
        <time>2019-09-16T07:43:47Z</time>
      </trkpt>
      <trkpt lat="59.41083595385" lon="17.968770293159">
        <ele>62.4</ele>
        <time>2019-09-16T07:43:54Z</time>
      </trkpt>
      <trkpt lat="59.410615174604" lon="17.969093666861">
        <ele>61.4</ele>
        <time>2019-09-16T07:43:58Z</time>
      </trkpt>
      <trkpt lat="59.410412919357" lon="17.969508235635">
        <ele>60.2</ele>
        <time>2019-09-16T07:44:02Z</time>
      </trkpt>
      <trkpt lat="59.410050150725" lon="17.970462850226">
        <ele>60.2</ele>
        <time>2019-09-16T07:44:09Z</time>
      </trkpt>
      <trkpt lat="59.409857618482" lon="17.971071543804">
        <ele>59.2</ele>
        <time>2019-09-16T07:44:13Z</time>
      </trkpt>
      <trkpt lat="59.409697943287" lon="17.971501283817">
        <ele>58.6</ele>
        <time>2019-09-16T07:44:16Z</time>
      </trkpt>
      <trkpt lat="59.409586631655" lon="17.971791297557">
        <ele>58</ele>
        <time>2019-09-16T07:44:18Z</time>
      </trkpt>
      <trkpt lat="59.409300473589" lon="17.9724615981">
        <ele>56.6</ele>
        <time>2019-09-16T07:44:23Z</time>
      </trkpt>
      <trkpt lat="59.409130740114" lon="17.972810452778">
        <ele>55.4</ele>
        <time>2019-09-16T07:44:26Z</time>
      </trkpt>
      <trkpt lat="59.408915912017" lon="17.973231307977">
        <ele>54.2</ele>
        <time>2019-09-16T07:44:30Z</time>
      </trkpt>
      <trkpt lat="59.408549874444" lon="17.973923233822">
        <ele>53</ele>
        <time>2019-09-16T07:44:37Z</time>
      </trkpt>
      <trkpt lat="59.408431438197" lon="17.974147533466">
        <ele>51.8</ele>
        <time>2019-09-16T07:44:39Z</time>
      </trkpt>
      <trkpt lat="59.407958699037" lon="17.974774080491">
        <ele>51.2</ele>
        <time>2019-09-16T07:44:46Z</time>
      </trkpt>
      <trkpt lat="59.407440362341" lon="17.97506585443">
        <ele>51</ele>
        <time>2019-09-16T07:44:52Z</time>
      </trkpt>
      <trkpt lat="59.407349754002" lon="17.975100052582">
        <ele>50.8</ele>
        <time>2019-09-16T07:44:53Z</time>
      </trkpt>
      <trkpt lat="59.407173231188" lon="17.97514548248">
        <ele>50</ele>
        <time>2019-09-16T07:44:55Z</time>
      </trkpt>
      <trkpt lat="59.406867208019" lon="17.975217231544">
        <ele>50</ele>
        <time>2019-09-16T07:44:58Z</time>
      </trkpt>
      <trkpt lat="59.406602842893" lon="17.975415044384">
        <ele>49.4</ele>
        <time>2019-09-16T07:45:01Z</time>
      </trkpt>
      <trkpt lat="59.406426739174" lon="17.975622496409">
        <ele>48</ele>
        <time>2019-09-16T07:45:03Z</time>
      </trkpt>
      <trkpt lat="59.406265219961" lon="17.975872360848">
        <ele>46.8</ele>
        <time>2019-09-16T07:45:05Z</time>
      </trkpt>
      <trkpt lat="59.406052235882" lon="17.976298748101">
        <ele>45.6</ele>
        <time>2019-09-16T07:45:08Z</time>
      </trkpt>
      <trkpt lat="59.405843526572" lon="17.976738378756">
        <ele>44.2</ele>
        <time>2019-09-16T07:45:11Z</time>
      </trkpt>
      <trkpt lat="59.405707572154" lon="17.976914650113">
        <ele>43.4</ele>
        <time>2019-09-16T07:45:13Z</time>
      </trkpt>
      <trkpt lat="59.405635320176" lon="17.976932419741">
        <ele>43.2</ele>
        <time>2019-09-16T07:45:14Z</time>
      </trkpt>
      <trkpt lat="59.40555787142" lon="17.976933844664">
        <ele>43</ele>
        <time>2019-09-16T07:45:15Z</time>
      </trkpt>
      <trkpt lat="59.405385958651" lon="17.976760926067">
        <ele>43.2</ele>
        <time>2019-09-16T07:45:18Z</time>
      </trkpt>
      <trkpt lat="59.405249166043" lon="17.976634527015">
        <ele>42.8</ele>
        <time>2019-09-16T07:45:20Z</time>
      </trkpt>
      <trkpt lat="59.405110026503" lon="17.97645557345">
        <ele>42.2</ele>
        <time>2019-09-16T07:45:22Z</time>
      </trkpt>
      <trkpt lat="59.405049760642" lon="17.97633990323">
        <ele>42</ele>
        <time>2019-09-16T07:45:23Z</time>
      </trkpt>
      <trkpt lat="59.404770391915" lon="17.97553021169">
        <ele>40.8</ele>
        <time>2019-09-16T07:45:28Z</time>
      </trkpt>
      <trkpt lat="59.404581799165" lon="17.975090497216">
        <ele>40.2</ele>
        <time>2019-09-16T07:45:31Z</time>
      </trkpt>
      <trkpt lat="59.404433523354" lon="17.9748672034">
        <ele>40</ele>
        <time>2019-09-16T07:45:33Z</time>
      </trkpt>
      <trkpt lat="59.40388149142" lon="17.974505608234">
        <ele>40.8</ele>
        <time>2019-09-16T07:45:40Z</time>
      </trkpt>
      <trkpt lat="59.403505060291" lon="17.974299078218">
        <ele>42</ele>
        <time>2019-09-16T07:45:45Z</time>
      </trkpt>
      <trkpt lat="59.403263829209" lon="17.974122639223">
        <ele>42.4</ele>
        <time>2019-09-16T07:45:48Z</time>
      </trkpt>
      <trkpt lat="59.403119911986" lon="17.973959275992">
        <ele>42.2</ele>
        <time>2019-09-16T07:45:50Z</time>
      </trkpt>
      <trkpt lat="59.402950010873" lon="17.973949552988">
        <ele>41.8</ele>
        <time>2019-09-16T07:45:52Z</time>
      </trkpt>
      <trkpt lat="59.402768039824" lon="17.974116101341">
        <ele>42</ele>
        <time>2019-09-16T07:45:55Z</time>
      </trkpt>
      <trkpt lat="59.40244651014" lon="17.97495269878">
        <ele>43.2</ele>
        <time>2019-09-16T07:46:01Z</time>
      </trkpt>
      <trkpt lat="59.402060607464" lon="17.975783177432">
        <ele>43</ele>
        <time>2019-09-16T07:46:07Z</time>
      </trkpt>
      <trkpt lat="59.401719464134" lon="17.976488681955">
        <ele>42</ele>
        <time>2019-09-16T07:46:12Z</time>
      </trkpt>
      <trkpt lat="59.401326939757" lon="17.977321507539">
        <ele>41.6</ele>
        <time>2019-09-16T07:46:18Z</time>
      </trkpt>
      <trkpt lat="59.401267931181" lon="17.977450840256">
        <ele>41.6</ele>
        <time>2019-09-16T07:46:19Z</time>
      </trkpt>
      <trkpt lat="59.400872054044" lon="17.978324318055">
        <ele>41.2</ele>
        <time>2019-09-16T07:46:26Z</time>
      </trkpt>
      <trkpt lat="59.400467124455" lon="17.979259151362">
        <ele>41</ele>
        <time>2019-09-16T07:46:33Z</time>
      </trkpt>
      <trkpt lat="59.400042162125" lon="17.980164899476">
        <ele>39.8</ele>
        <time>2019-09-16T07:46:40Z</time>
      </trkpt>
      <trkpt lat="59.39968551228" lon="17.980957575759">
        <ele>39.2</ele>
        <time>2019-09-16T07:46:46Z</time>
      </trkpt>
      <trkpt lat="59.399513850968" lon="17.981369797601">
        <ele>38.6</ele>
        <time>2019-09-16T07:46:49Z</time>
      </trkpt>
      <trkpt lat="59.399255353172" lon="17.981927948322">
        <ele>37.2</ele>
        <time>2019-09-16T07:46:53Z</time>
      </trkpt>
      <trkpt lat="59.398818907639" lon="17.982594560829">
        <ele>36.4</ele>
        <time>2019-09-16T07:46:59Z</time>
      </trkpt>
      <trkpt lat="59.398355640026" lon="17.98328095462">
        <ele>37</ele>
        <time>2019-09-16T07:47:05Z</time>
      </trkpt>
      <trkpt lat="59.397908046566" lon="17.983892581863">
        <ele>36.8</ele>
        <time>2019-09-16T07:47:11Z</time>
      </trkpt>
      <trkpt lat="59.397399097598" lon="17.984433046775">
        <ele>36.6</ele>
        <time>2019-09-16T07:47:17Z</time>
      </trkpt>
      <trkpt lat="59.396974889639" lon="17.984850968309">
        <ele>36.2</ele>
        <time>2019-09-16T07:47:22Z</time>
      </trkpt>
      <trkpt lat="59.396485051403" lon="17.985292945896">
        <ele>35.2</ele>
        <time>2019-09-16T07:47:28Z</time>
      </trkpt>
      <trkpt lat="59.396161174787" lon="17.985593017916">
        <ele>35</ele>
        <time>2019-09-16T07:47:32Z</time>
      </trkpt>
      <trkpt lat="59.395615429278" lon="17.98608302379">
        <ele>34.8</ele>
        <time>2019-09-16T07:47:39Z</time>
      </trkpt>
      <trkpt lat="59.395056524186" lon="17.986456353616">
        <ele>34.8</ele>
        <time>2019-09-16T07:47:46Z</time>
      </trkpt>
      <trkpt lat="59.394819484054" lon="17.986585602514">
        <ele>33.6</ele>
        <time>2019-09-16T07:47:49Z</time>
      </trkpt>
      <trkpt lat="59.394490159203" lon="17.986758940206">
        <ele>32.4</ele>
        <time>2019-09-16T07:47:53Z</time>
      </trkpt>
      <trkpt lat="59.393916585786" lon="17.987064963375">
        <ele>31.4</ele>
        <time>2019-09-16T07:48:01Z</time>
      </trkpt>
      <trkpt lat="59.393457844399" lon="17.987362772282">
        <ele>31.2</ele>
        <time>2019-09-16T07:48:05Z</time>
      </trkpt>
      <trkpt lat="59.392882510783" lon="17.98769737773">
        <ele>31.4</ele>
        <time>2019-09-16T07:48:11Z</time>
      </trkpt>
      <trkpt lat="59.392460565937" lon="17.988312441552">
        <ele>30.4</ele>
        <time>2019-09-16T07:48:17Z</time>
      </trkpt>
      <trkpt lat="59.392405413035" lon="17.988437918595">
        <ele>30</ele>
        <time>2019-09-16T07:48:18Z</time>
      </trkpt>
      <trkpt lat="59.392356211282" lon="17.988569262968">
        <ele>29.6</ele>
        <time>2019-09-16T07:48:19Z</time>
      </trkpt>
      <trkpt lat="59.392272057006" lon="17.988866820418">
        <ele>29</ele>
        <time>2019-09-16T07:48:21Z</time>
      </trkpt>
      <trkpt lat="59.39206720337" lon="17.989911708072">
        <ele>28</ele>
        <time>2019-09-16T07:48:27Z</time>
      </trkpt>
      <trkpt lat="59.391799569303" lon="17.990910914371">
        <ele>27.4</ele>
        <time>2019-09-16T07:48:33Z</time>
      </trkpt>
      <trkpt lat="59.391706697851" lon="17.991231857322">
        <ele>26.8</ele>
        <time>2019-09-16T07:48:35Z</time>
      </trkpt>
      <trkpt lat="59.391504526423" lon="17.991868965541">
        <ele>25.8</ele>
        <time>2019-09-16T07:48:39Z</time>
      </trkpt>
      <trkpt lat="59.391239155469" lon="17.992694163596">
        <ele>24.6</ele>
        <time>2019-09-16T07:48:44Z</time>
      </trkpt>
      <trkpt lat="59.390982501691" lon="17.993492036657">
        <ele>23.6</ele>
        <time>2019-09-16T07:48:49Z</time>
      </trkpt>
      <trkpt lat="59.390833890604" lon="17.993973660631">
        <ele>22.6</ele>
        <time>2019-09-16T07:48:52Z</time>
      </trkpt>
      <trkpt lat="59.390539350638" lon="17.994911259965">
        <ele>21.8</ele>
        <time>2019-09-16T07:48:58Z</time>
      </trkpt>
      <trkpt lat="59.390246989966" lon="17.995811224568">
        <ele>21.6</ele>
        <time>2019-09-16T07:49:04Z</time>
      </trkpt>
      <trkpt lat="59.390197704394" lon="17.995961009121">
        <ele>21.4</ele>
        <time>2019-09-16T07:49:05Z</time>
      </trkpt>
      <trkpt lat="59.390041801054" lon="17.996376918999">
        <ele>20.2</ele>
        <time>2019-09-16T07:49:08Z</time>
      </trkpt>
      <trkpt lat="59.389612731593" lon="17.996924089431">
        <ele>21.6</ele>
        <time>2019-09-16T07:49:15Z</time>
      </trkpt>
      <trkpt lat="59.389454984235" lon="17.997077897296">
        <ele>22.8</ele>
        <time>2019-09-16T07:49:19Z</time>
      </trkpt>
      <trkpt lat="59.389331099753" lon="17.997245116201">
        <ele>24.2</ele>
        <time>2019-09-16T07:49:22Z</time>
      </trkpt>
      <trkpt lat="59.389246442563" lon="17.997359780593">
        <ele>24.6</ele>
        <time>2019-09-16T07:49:24Z</time>
      </trkpt>
      <trkpt lat="59.389058604184" lon="17.997605789358">
        <ele>25.2</ele>
        <time>2019-09-16T07:49:29Z</time>
      </trkpt>
      <trkpt lat="59.388967409112" lon="17.997663708287">
        <ele>26.6</ele>
        <time>2019-09-16T07:49:32Z</time>
      </trkpt>
      <trkpt lat="59.388919464644" lon="17.99770201357">
        <ele>28.4</ele>
        <time>2019-09-16T07:49:34Z</time>
      </trkpt>
      <trkpt lat="59.388873615651" lon="17.997749119848">
        <ele>29.4</ele>
        <time>2019-09-16T07:49:36Z</time>
      </trkpt>
      <trkpt lat="59.388780492742" lon="17.997834866685">
        <ele>30.6</ele>
        <time>2019-09-16T07:49:39Z</time>
      </trkpt>
      <trkpt lat="59.388608579973" lon="17.998091185187">
        <ele>31.6</ele>
        <time>2019-09-16T07:49:43Z</time>
      </trkpt>
      <trkpt lat="59.388489892269" lon="17.998275000254">
        <ele>31.6</ele>
        <time>2019-09-16T07:49:46Z</time>
      </trkpt>
      <trkpt lat="59.388141205229" lon="17.998657633989">
        <ele>31.6</ele>
        <time>2019-09-16T07:49:52Z</time>
      </trkpt>
      <trkpt lat="59.38802209843" lon="17.998735669478">
        <ele>31</ele>
        <time>2019-09-16T07:49:54Z</time>
      </trkpt>
      <trkpt lat="59.387942051285" lon="17.998867516765">
        <ele>30.6</ele>
        <time>2019-09-16T07:49:55Z</time>
      </trkpt>
      <trkpt lat="59.387883545623" lon="17.99887212681">
        <ele>30</ele>
        <time>2019-09-16T07:49:56Z</time>
      </trkpt>
      <trkpt lat="59.387736778554" lon="17.998880760167">
        <ele>29.4</ele>
        <time>2019-09-16T07:49:58Z</time>
      </trkpt>
      <trkpt lat="59.387596968462" lon="17.998660316197">
        <ele>28.8</ele>
        <time>2019-09-16T07:50:01Z</time>
      </trkpt>
      <trkpt lat="59.387573499142" lon="17.99854523271">
        <ele>29</ele>
        <time>2019-09-16T07:50:03Z</time>
      </trkpt>
      <trkpt lat="59.387534607126" lon="17.998327219491">
        <ele>29.6</ele>
        <time>2019-09-16T07:50:06Z</time>
      </trkpt>
      <trkpt lat="59.387488255219" lon="17.998191265073">
        <ele>30.4</ele>
        <time>2019-09-16T07:50:08Z</time>
      </trkpt>
      <trkpt lat="59.387451039583" lon="17.99812949047">
        <ele>30.6</ele>
        <time>2019-09-16T07:50:09Z</time>
      </trkpt>
      <trkpt lat="59.387405944961" lon="17.998090011721">
        <ele>31</ele>
        <time>2019-09-16T07:50:10Z</time>
      </trkpt>
      <trkpt lat="59.387259680806" lon="17.997761105965">
        <ele>31.4</ele>
        <time>2019-09-16T07:50:12Z</time>
      </trkpt>
      <trkpt lat="59.386708403243" lon="17.997688267254">
        <ele>30.2</ele>
        <time>2019-09-16T07:50:19Z</time>
      </trkpt>
      <trkpt lat="59.386174057118" lon="17.997716011343">
        <ele>29.2</ele>
        <time>2019-09-16T07:50:25Z</time>
      </trkpt>
      <trkpt lat="59.38580424769" lon="17.997739061568">
        <ele>28.2</ele>
        <time>2019-09-16T07:50:29Z</time>
      </trkpt>
      <trkpt lat="59.385529991922" lon="17.997758842852">
        <ele>27</ele>
        <time>2019-09-16T07:50:32Z</time>
      </trkpt>
      <trkpt lat="59.385244001494" lon="17.997773343539">
        <ele>25.8</ele>
        <time>2019-09-16T07:50:35Z</time>
      </trkpt>
      <trkpt lat="59.385060270246" lon="17.997788766235">
        <ele>24.6</ele>
        <time>2019-09-16T07:50:37Z</time>
      </trkpt>
      <trkpt lat="59.38452181699" lon="17.997821371826">
        <ele>24.4</ele>
        <time>2019-09-16T07:50:43Z</time>
      </trkpt>
      <trkpt lat="59.383917230543" lon="17.997875267443">
        <ele>23.4</ele>
        <time>2019-09-16T07:50:50Z</time>
      </trkpt>
      <trkpt lat="59.383752190932" lon="17.997946094498">
        <ele>23.2</ele>
        <time>2019-09-16T07:50:52Z</time>
      </trkpt>
      <trkpt lat="59.383600143266" lon="17.998104680046">
        <ele>22.4</ele>
        <time>2019-09-16T07:50:54Z</time>
      </trkpt>
      <trkpt lat="59.38352017994" lon="17.998205430484">
        <ele>22.2</ele>
        <time>2019-09-16T07:50:55Z</time>
      </trkpt>
      <trkpt lat="59.383133187617" lon="17.998730137424">
        <ele>21.2</ele>
        <time>2019-09-16T07:51:00Z</time>
      </trkpt>
      <trkpt lat="59.383005866556" lon="17.998954688525">
        <ele>20.6</ele>
        <time>2019-09-16T07:51:02Z</time>
      </trkpt>
      <trkpt lat="59.382939901003" lon="17.999093576608">
        <ele>20.2</ele>
        <time>2019-09-16T07:51:03Z</time>
      </trkpt>
      <trkpt lat="59.382895476933" lon="17.999238332021">
        <ele>20</ele>
        <time>2019-09-16T07:51:04Z</time>
      </trkpt>
      <trkpt lat="59.382821213299" lon="17.9996692455">
        <ele>19.8</ele>
        <time>2019-09-16T07:51:07Z</time>
      </trkpt>
      <trkpt lat="59.382713338246" lon="17.999904525433">
        <ele>19.8</ele>
        <time>2019-09-16T07:51:09Z</time>
      </trkpt>
      <trkpt lat="59.382219979612" lon="18.000575915623">
        <ele>19.8</ele>
        <time>2019-09-16T07:51:16Z</time>
      </trkpt>
      <trkpt lat="59.381753778334" lon="18.001136497095">
        <ele>18.8</ele>
        <time>2019-09-16T07:51:23Z</time>
      </trkpt>
      <trkpt lat="59.3812855654" lon="18.001729684158">
        <ele>19</ele>
        <time>2019-09-16T07:51:31Z</time>
      </trkpt>
      <trkpt lat="59.381234519629" lon="18.001762373568">
        <ele>19.2</ele>
        <time>2019-09-16T07:51:32Z</time>
      </trkpt>
      <trkpt lat="59.381131925173" lon="18.001741586456">
        <ele>19.8</ele>
        <time>2019-09-16T07:51:34Z</time>
      </trkpt>
      <trkpt lat="59.381023798663" lon="18.00167671055">
        <ele>20</ele>
        <time>2019-09-16T07:51:36Z</time>
      </trkpt>
      <trkpt lat="59.380460115888" lon="18.00152667454">
        <ele>20.2</ele>
        <time>2019-09-16T07:51:44Z</time>
      </trkpt>
      <trkpt lat="59.380283341617" lon="18.001465989584">
        <ele>21</ele>
        <time>2019-09-16T07:51:47Z</time>
      </trkpt>
      <trkpt lat="59.380227182887" lon="18.001453919648">
        <ele>21.6</ele>
        <time>2019-09-16T07:51:48Z</time>
      </trkpt>
      <trkpt lat="59.380171778528" lon="18.001451656535">
        <ele>22.4</ele>
        <time>2019-09-16T07:51:49Z</time>
      </trkpt>
      <trkpt lat="59.380114949246" lon="18.00145710477">
        <ele>23</ele>
        <time>2019-09-16T07:51:50Z</time>
      </trkpt>
      <trkpt lat="59.379999614302" lon="18.001498259899">
        <ele>23.4</ele>
        <time>2019-09-16T07:51:52Z</time>
      </trkpt>
      <trkpt lat="59.379939013165" lon="18.001537319553">
        <ele>23.4</ele>
        <time>2019-09-16T07:51:53Z</time>
      </trkpt>
      <trkpt lat="59.379380108073" lon="18.001912912492">
        <ele>24.4</ele>
        <time>2019-09-16T07:52:02Z</time>
      </trkpt>
      <trkpt lat="59.379195370997" lon="18.002060266294">
        <ele>24.6</ele>
        <time>2019-09-16T07:52:05Z</time>
      </trkpt>
      <trkpt lat="59.37877602454" lon="18.002380454874">
        <ele>25.8</ele>
        <time>2019-09-16T07:52:12Z</time>
      </trkpt>
      <trkpt lat="59.378436725228" lon="18.002618249377">
        <ele>26.8</ele>
        <time>2019-09-16T07:52:18Z</time>
      </trkpt>
      <trkpt lat="59.377939846196" lon="18.002979844543">
        <ele>27.4</ele>
        <time>2019-09-16T07:52:27Z</time>
      </trkpt>
      <trkpt lat="59.377807747452" lon="18.003140357928">
        <ele>27</ele>
        <time>2019-09-16T07:52:30Z</time>
      </trkpt>
      <trkpt lat="59.377692999241" lon="18.003179669039">
        <ele>26.8</ele>
        <time>2019-09-16T07:52:32Z</time>
      </trkpt>
      <trkpt lat="59.377551680407" lon="18.003207832223">
        <ele>26.8</ele>
        <time>2019-09-16T07:52:34Z</time>
      </trkpt>
      <trkpt lat="59.377271724947" lon="18.003458451033">
        <ele>25.8</ele>
        <time>2019-09-16T07:52:38Z</time>
      </trkpt>
      <trkpt lat="59.376989757831" lon="18.003748464773">
        <ele>24.2</ele>
        <time>2019-09-16T07:52:42Z</time>
      </trkpt>
      <trkpt lat="59.376911973799" lon="18.003822393131">
        <ele>23.4</ele>
        <time>2019-09-16T07:52:43Z</time>
      </trkpt>
      <trkpt lat="59.376822036012" lon="18.003845359537">
        <ele>22.8</ele>
        <time>2019-09-16T07:52:44Z</time>
      </trkpt>
      <trkpt lat="59.376522802182" lon="18.004010734424">
        <ele>21.4</ele>
        <time>2019-09-16T07:52:47Z</time>
      </trkpt>
      <trkpt lat="59.376234967736" lon="18.004175438759">
        <ele>20.4</ele>
        <time>2019-09-16T07:52:50Z</time>
      </trkpt>
      <trkpt lat="59.375758121445" lon="18.004494370054">
        <ele>19.2</ele>
        <time>2019-09-16T07:52:55Z</time>
      </trkpt>
      <trkpt lat="59.375304409198" lon="18.004854540297">
        <ele>18</ele>
        <time>2019-09-16T07:53:00Z</time>
      </trkpt>
      <trkpt lat="59.375032165086" lon="18.005076325371">
        <ele>16.8</ele>
        <time>2019-09-16T07:53:03Z</time>
      </trkpt>
      <trkpt lat="59.374496980771" lon="18.005606061451">
        <ele>17</ele>
        <time>2019-09-16T07:53:09Z</time>
      </trkpt>
      <trkpt lat="59.373992725667" lon="18.006009482298">
        <ele>15.8</ele>
        <time>2019-09-16T07:53:15Z</time>
      </trkpt>
      <trkpt lat="59.373457457533" lon="18.006426230366">
        <ele>16.2</ele>
        <time>2019-09-16T07:53:21Z</time>
      </trkpt>
      <trkpt lat="59.373271714629" lon="18.006581044059">
        <ele>16.8</ele>
        <time>2019-09-16T07:53:23Z</time>
      </trkpt>
      <trkpt lat="59.373016988688" lon="18.006785646238">
        <ele>17.2</ele>
        <time>2019-09-16T07:53:26Z</time>
      </trkpt>
      <trkpt lat="59.37252228895" lon="18.007117485659">
        <ele>16.4</ele>
        <time>2019-09-16T07:53:32Z</time>
      </trkpt>
      <trkpt lat="59.372241327662" lon="18.007399368956">
        <ele>18</ele>
        <time>2019-09-16T07:53:36Z</time>
      </trkpt>
      <trkpt lat="59.371701617121" lon="18.007724670495">
        <ele>16.4</ele>
        <time>2019-09-16T07:53:43Z</time>
      </trkpt>
      <trkpt lat="59.37111245337" lon="18.007933547443">
        <ele>16.6</ele>
        <time>2019-09-16T07:53:50Z</time>
      </trkpt>
      <trkpt lat="59.370637702554" lon="18.008115015578">
        <ele>17.8</ele>
        <time>2019-09-16T07:53:56Z</time>
      </trkpt>
      <trkpt lat="59.370040575998" lon="18.008315845902">
        <ele>17.8</ele>
        <time>2019-09-16T07:54:04Z</time>
      </trkpt>
      <trkpt lat="59.369478569603" lon="18.008558669545">
        <ele>18.6</ele>
        <time>2019-09-16T07:54:12Z</time>
      </trkpt>
      <trkpt lat="59.369275559985" lon="18.008680290914">
        <ele>19.2</ele>
        <time>2019-09-16T07:54:15Z</time>
      </trkpt>
      <trkpt lat="59.36907984262" lon="18.008832087123">
        <ele>20.6</ele>
        <time>2019-09-16T07:54:18Z</time>
      </trkpt>
      <trkpt lat="59.368622693794" lon="18.009538681293">
        <ele>20.8</ele>
        <time>2019-09-16T07:54:27Z</time>
      </trkpt>
      <trkpt lat="59.368380540703" lon="18.010047630261">
        <ele>20.6</ele>
        <time>2019-09-16T07:54:36Z</time>
      </trkpt>
      <trkpt lat="59.368351539329" lon="18.010212669872">
        <ele>20.6</ele>
        <time>2019-09-16T07:54:38Z</time>
      </trkpt>
      <trkpt lat="59.368021460107" lon="18.011174157621">
        <ele>20.6</ele>
        <time>2019-09-16T07:54:47Z</time>
      </trkpt>
      <trkpt lat="59.367642933503" lon="18.011836160083">
        <ele>21.8</ele>
        <time>2019-09-16T07:54:54Z</time>
      </trkpt>
      <trkpt lat="59.367352081573" lon="18.012274617272">
        <ele>22.6</ele>
        <time>2019-09-16T07:55:00Z</time>
      </trkpt>
      <trkpt lat="59.367303047458" lon="18.012320633903">
        <ele>22.8</ele>
        <time>2019-09-16T07:55:01Z</time>
      </trkpt>
      <trkpt lat="59.367252756058" lon="18.012346701612">
        <ele>23</ele>
        <time>2019-09-16T07:55:02Z</time>
      </trkpt>
      <trkpt lat="59.367155526018" lon="18.012421719617">
        <ele>23.6</ele>
        <time>2019-09-16T07:55:04Z</time>
      </trkpt>
      <trkpt lat="59.367115041441" lon="18.012484080953">
        <ele>24</ele>
        <time>2019-09-16T07:55:05Z</time>
      </trkpt>
      <trkpt lat="59.36704890825" lon="18.012609809453">
        <ele>24.2</ele>
        <time>2019-09-16T07:55:07Z</time>
      </trkpt>
      <trkpt lat="59.366966346535" lon="18.012705195475">
        <ele>24.4</ele>
        <time>2019-09-16T07:55:09Z</time>
      </trkpt>
      <trkpt lat="59.366748668592" lon="18.012972410447">
        <ele>25.2</ele>
        <time>2019-09-16T07:55:14Z</time>
      </trkpt>
      <trkpt lat="59.366288502282" lon="18.013573057401">
        <ele>25.8</ele>
        <time>2019-09-16T07:55:23Z</time>
      </trkpt>
      <trkpt lat="59.365819451158" lon="18.014223409022">
        <ele>25.6</ele>
        <time>2019-09-16T07:55:33Z</time>
      </trkpt>
      <trkpt lat="59.365377473571" lon="18.014831934962">
        <ele>24.6</ele>
        <time>2019-09-16T07:55:51Z</time>
      </trkpt>
      <trkpt lat="59.365276304038" lon="18.014998650953">
        <ele>24.8</ele>
        <time>2019-09-16T07:55:54Z</time>
      </trkpt>
      <trkpt lat="59.36516130437" lon="18.015065789972">
        <ele>25.6</ele>
        <time>2019-09-16T07:55:57Z</time>
      </trkpt>
      <trkpt lat="59.365052255851" lon="18.015045338136">
        <ele>26</ele>
        <time>2019-09-16T07:55:59Z</time>
      </trkpt>
      <trkpt lat="59.364961479874" lon="18.014995465831">
        <ele>26.2</ele>
        <time>2019-09-16T07:56:01Z</time>
      </trkpt>
      <trkpt lat="59.364931975586" lon="18.015016923495">
        <ele>26</ele>
        <time>2019-09-16T07:56:02Z</time>
      </trkpt>
      <trkpt lat="59.364811862959" lon="18.015003512455">
        <ele>26</ele>
        <time>2019-09-16T07:56:05Z</time>
      </trkpt>
      <trkpt lat="59.364668867745" lon="18.014830761496">
        <ele>26.2</ele>
        <time>2019-09-16T07:56:07Z</time>
      </trkpt>
      <trkpt lat="59.36454188196" lon="18.014719449864">
        <ele>26.6</ele>
        <time>2019-09-16T07:56:09Z</time>
      </trkpt>
      <trkpt lat="59.364450351612" lon="18.014777871707">
        <ele>26.8</ele>
        <time>2019-09-16T07:56:11Z</time>
      </trkpt>
      <trkpt lat="59.364391426855" lon="18.014950035933">
        <ele>26.8</ele>
        <time>2019-09-16T07:56:13Z</time>
      </trkpt>
      <trkpt lat="59.364338872342" lon="18.015590832188">
        <ele>28</ele>
        <time>2019-09-16T07:56:22Z</time>
      </trkpt>
      <trkpt lat="59.364327137682" lon="18.015676579025">
        <ele>28.6</ele>
        <time>2019-09-16T07:56:23Z</time>
      </trkpt>
      <trkpt lat="59.364287826571" lon="18.015866261422">
        <ele>29</ele>
        <time>2019-09-16T07:56:25Z</time>
      </trkpt>
      <trkpt lat="59.363978702099" lon="18.01646573491">
        <ele>30.4</ele>
        <time>2019-09-16T07:56:37Z</time>
      </trkpt>
      <trkpt lat="59.363870575589" lon="18.016471434602">
        <ele>31</ele>
        <time>2019-09-16T07:56:38Z</time>
      </trkpt>
      <trkpt lat="59.363894966918" lon="18.016407732162">
        <ele>31.4</ele>
        <time>2019-09-16T07:56:39Z</time>
      </trkpt>
      <trkpt lat="59.363839394921" lon="18.01644729473">
        <ele>31.6</ele>
        <time>2019-09-16T07:56:40Z</time>
      </trkpt>
      <trkpt lat="59.363768484047" lon="18.016509069333">
        <ele>30.4</ele>
        <time>2019-09-16T07:56:44Z</time>
      </trkpt>
      <trkpt lat="59.363653232922" lon="18.016308825742">
        <ele>31.4</ele>
        <time>2019-09-16T07:56:47Z</time>
      </trkpt>
      <trkpt lat="59.363612413069" lon="18.016273118848">
        <ele>32.2</ele>
        <time>2019-09-16T07:56:48Z</time>
      </trkpt>
      <trkpt lat="59.363566899352" lon="18.016239255972">
        <ele>33</ele>
        <time>2019-09-16T07:56:49Z</time>
      </trkpt>
      <trkpt lat="59.363461957964" lon="18.016185611812">
        <ele>34.2</ele>
        <time>2019-09-16T07:56:52Z</time>
      </trkpt>
      <trkpt lat="59.363452654055" lon="18.016039431476">
        <ele>35.2</ele>
        <time>2019-09-16T07:56:57Z</time>
      </trkpt>
      <trkpt lat="59.363425999613" lon="18.016010513921">
        <ele>35.4</ele>
        <time>2019-09-16T07:56:58Z</time>
      </trkpt>
      <trkpt lat="59.362847648513" lon="18.016268257346">
        <ele>36</ele>
        <time>2019-09-16T07:57:12Z</time>
      </trkpt>
      <trkpt lat="59.362695433209" lon="18.01634000641">
        <ele>36.2</ele>
        <time>2019-09-16T07:57:15Z</time>
      </trkpt>
      <trkpt lat="59.362491417763" lon="18.016508398781">
        <ele>36</ele>
        <time>2019-09-16T07:57:19Z</time>
      </trkpt>
      <trkpt lat="59.362394355361" lon="18.016609568314">
        <ele>36.4</ele>
        <time>2019-09-16T07:57:22Z</time>
      </trkpt>
      <trkpt lat="59.362241972419" lon="18.016674695677">
        <ele>37.6</ele>
        <time>2019-09-16T07:57:25Z</time>
      </trkpt>
      <trkpt lat="59.362127308027" lon="18.016755581012">
        <ele>38.8</ele>
        <time>2019-09-16T07:57:28Z</time>
      </trkpt>
      <trkpt lat="59.36165012646" lon="18.017057999964">
        <ele>38</ele>
        <time>2019-09-16T07:57:38Z</time>
      </trkpt>
      <trkpt lat="59.361579467043" lon="18.017094125953">
        <ele>37.6</ele>
        <time>2019-09-16T07:57:39Z</time>
      </trkpt>
      <trkpt lat="59.361277383367" lon="18.017160007687">
        <ele>36.6</ele>
        <time>2019-09-16T07:57:43Z</time>
      </trkpt>
      <trkpt lat="59.360929702155" lon="18.017208706526">
        <ele>35.2</ele>
        <time>2019-09-16T07:57:47Z</time>
      </trkpt>
      <trkpt lat="59.360755358635" lon="18.01723854609">
        <ele>34.2</ele>
        <time>2019-09-16T07:57:49Z</time>
      </trkpt>
      <trkpt lat="59.360584451694" lon="18.017262350686">
        <ele>33</ele>
        <time>2019-09-16T07:57:51Z</time>
      </trkpt>
      <trkpt lat="59.360404743758" lon="18.017281377599">
        <ele>31.8</ele>
        <time>2019-09-16T07:57:53Z</time>
      </trkpt>
      <trkpt lat="59.360135600949" lon="18.017312474448">
        <ele>30.4</ele>
        <time>2019-09-16T07:57:56Z</time>
      </trkpt>
      <trkpt lat="59.359798145655" lon="18.017352456111">
        <ele>29.8</ele>
        <time>2019-09-16T07:58:00Z</time>
      </trkpt>
      <trkpt lat="59.359252316327" lon="18.017299231046">
        <ele>30.2</ele>
        <time>2019-09-16T07:58:07Z</time>
      </trkpt>
      <trkpt lat="59.35909448515" lon="18.017269223844">
        <ele>29.2</ele>
        <time>2019-09-16T07:58:09Z</time>
      </trkpt>
      <trkpt lat="59.358898013414" lon="18.017279952676">
        <ele>28.2</ele>
        <time>2019-09-16T07:58:11Z</time>
      </trkpt>
      <trkpt lat="59.358718221659" lon="18.017213065114">
        <ele>26.8</ele>
        <time>2019-09-16T07:58:13Z</time>
      </trkpt>
      <trkpt lat="59.35813643398" lon="18.017062442371">
        <ele>26.4</ele>
        <time>2019-09-16T07:58:20Z</time>
      </trkpt>
      <trkpt lat="59.357813563192" lon="18.017001505958">
        <ele>26.6</ele>
        <time>2019-09-16T07:58:24Z</time>
      </trkpt>
      <trkpt lat="59.357656318748" lon="18.016990525669">
        <ele>26</ele>
        <time>2019-09-16T07:58:26Z</time>
      </trkpt>
      <trkpt lat="59.357489938033" lon="18.016954064404">
        <ele>25.8</ele>
        <time>2019-09-16T07:58:28Z</time>
      </trkpt>
      <trkpt lat="59.356974283545" lon="18.016875190725">
        <ele>26.2</ele>
        <time>2019-09-16T07:58:35Z</time>
      </trkpt>
      <trkpt lat="59.356443625456" lon="18.01667528241">
        <ele>25.2</ele>
        <time>2019-09-16T07:58:43Z</time>
      </trkpt>
      <trkpt lat="59.356374977695" lon="18.016661284637">
        <ele>25.2</ele>
        <time>2019-09-16T07:58:44Z</time>
      </trkpt>
      <trkpt lat="59.356232401576" lon="18.016615435644">
        <ele>24.8</ele>
        <time>2019-09-16T07:58:46Z</time>
      </trkpt>
      <trkpt lat="59.356056633133" lon="18.016510913351">
        <ele>24.6</ele>
        <time>2019-09-16T07:58:48Z</time>
      </trkpt>
      <trkpt lat="59.355665617498" lon="18.016239172153">
        <ele>25.2</ele>
        <time>2019-09-16T07:58:54Z</time>
      </trkpt>
      <trkpt lat="59.355566040526" lon="18.016176307903">
        <ele>25</ele>
        <time>2019-09-16T07:58:56Z</time>
      </trkpt>
      <trkpt lat="59.35527904427" lon="18.015793003616">
        <ele>23.8</ele>
        <time>2019-09-16T07:59:03Z</time>
      </trkpt>
      <trkpt lat="59.355229255784" lon="18.01573064228">
        <ele>23.6</ele>
        <time>2019-09-16T07:59:04Z</time>
      </trkpt>
      <trkpt lat="59.354897500182" lon="18.015390756235">
        <ele>22.4</ele>
        <time>2019-09-16T07:59:15Z</time>
      </trkpt>
      <trkpt lat="59.354712176373" lon="18.015198810725">
        <ele>22</ele>
        <time>2019-09-16T07:59:21Z</time>
      </trkpt>
      <trkpt lat="59.354739166091" lon="18.015019354246">
        <ele>22</ele>
        <time>2019-09-16T07:59:24Z</time>
      </trkpt>
      <trkpt lat="59.354953491274" lon="18.014501688102">
        <ele>23.6</ele>
        <time>2019-09-16T07:59:30Z</time>
      </trkpt>
      <trkpt lat="59.355118782342" lon="18.014058956144">
        <ele>22.4</ele>
        <time>2019-09-16T07:59:35Z</time>
      </trkpt>
      <trkpt lat="59.3551424193" lon="18.013967761072">
        <ele>22</ele>
        <time>2019-09-16T07:59:36Z</time>
      </trkpt>
      <trkpt lat="59.355157674358" lon="18.013884444986">
        <ele>21.2</ele>
        <time>2019-09-16T07:59:37Z</time>
      </trkpt>
      <trkpt lat="59.355174102882" lon="18.013739354297">
        <ele>20</ele>
        <time>2019-09-16T07:59:39Z</time>
      </trkpt>
      <trkpt lat="59.355221879712" lon="18.013584121509">
        <ele>19.4</ele>
        <time>2019-09-16T07:59:41Z</time>
      </trkpt>
      <trkpt lat="59.355275775329" lon="18.013385805755">
        <ele>19.8</ele>
        <time>2019-09-16T07:59:45Z</time>
      </trkpt>
      <trkpt lat="59.35526395685" lon="18.01333341888">
        <ele>20</ele>
        <time>2019-09-16T07:59:47Z</time>
      </trkpt>
      <trkpt lat="59.355450118849" lon="18.012310240347">
        <ele>20.4</ele>
        <time>2019-09-16T07:59:52Z</time>
      </trkpt>
      <trkpt lat="59.355517760782" lon="18.012147044754">
        <ele>21</ele>
        <time>2019-09-16T07:59:53Z</time>
      </trkpt>
      <trkpt lat="59.355625132921" lon="18.011864993819">
        <ele>22</ele>
        <time>2019-09-16T07:59:55Z</time>
      </trkpt>
      <trkpt lat="59.355704090419" lon="18.011605322557">
        <ele>22.6</ele>
        <time>2019-09-16T07:59:58Z</time>
      </trkpt>
      <trkpt lat="59.35570987393" lon="18.011500213531">
        <ele>22.2</ele>
        <time>2019-09-16T08:00:00Z</time>
      </trkpt>
      <trkpt lat="59.355655978313" lon="18.011500381169">
        <ele>21.2</ele>
        <time>2019-09-16T08:00:02Z</time>
      </trkpt>
      <trkpt lat="59.35562437855" lon="18.011554612062">
        <ele>21</ele>
        <time>2019-09-16T08:00:03Z</time>
      </trkpt>
      <trkpt lat="59.355523209017" lon="18.011753598368">
        <ele>20.8</ele>
        <time>2019-09-16T08:00:06Z</time>
      </trkpt>
      <trkpt lat="59.355370574618" lon="18.012236898722">
        <ele>21.4</ele>
        <time>2019-09-16T08:00:13Z</time>
      </trkpt>
      <trkpt lat="59.355300082839" lon="18.012359358281">
        <ele>21.8</ele>
        <time>2019-09-16T08:00:15Z</time>
      </trkpt>
      <trkpt lat="59.35524384029" lon="18.012395568089">
        <ele>22.2</ele>
        <time>2019-09-16T08:00:16Z</time>
      </trkpt>
      <trkpt lat="59.355131439011" lon="18.012463126203">
        <ele>23.4</ele>
        <time>2019-09-16T08:00:18Z</time>
      </trkpt>
      <trkpt lat="59.355076286109" lon="18.012502437314">
        <ele>23.8</ele>
        <time>2019-09-16T08:00:19Z</time>
      </trkpt>
      <trkpt lat="59.354822398358" lon="18.012753223762">
        <ele>24</ele>
        <time>2019-09-16T08:00:24Z</time>
      </trkpt>
      <trkpt lat="59.354515536999" lon="18.012945253091">
        <ele>24.2</ele>
        <time>2019-09-16T08:00:30Z</time>
      </trkpt>
      <trkpt lat="59.354472370214" lon="18.012937457924">
        <ele>24.6</ele>
        <time>2019-09-16T08:00:31Z</time>
      </trkpt>
      <trkpt lat="59.354406739937" lon="18.012883897583">
        <ele>26</ele>
        <time>2019-09-16T08:00:34Z</time>
      </trkpt>
      <trkpt lat="59.354337924538" lon="18.012833270907">
        <ele>26.8</ele>
        <time>2019-09-16T08:00:36Z</time>
      </trkpt>
      <trkpt lat="59.354288555147" lon="18.01280033004">
        <ele>27</ele>
        <time>2019-09-16T08:00:37Z</time>
      </trkpt>
      <trkpt lat="59.354234324254" lon="18.012788930656">
        <ele>27.2</ele>
        <time>2019-09-16T08:00:38Z</time>
      </trkpt>
      <trkpt lat="59.354083198597" lon="18.012807287017">
        <ele>27.2</ele>
        <time>2019-09-16T08:00:40Z</time>
      </trkpt>
      <trkpt lat="59.353926289429" lon="18.012757833807">
        <ele>27.2</ele>
        <time>2019-09-16T08:00:43Z</time>
      </trkpt>
      <trkpt lat="59.35384071023" lon="18.012593213291">
        <ele>28.2</ele>
        <time>2019-09-16T08:00:46Z</time>
      </trkpt>
      <trkpt lat="59.353783378034" lon="18.012465137859">
        <ele>29.4</ele>
        <time>2019-09-16T08:00:48Z</time>
      </trkpt>
      <trkpt lat="59.353770637546" lon="18.012282831534">
        <ele>29.4</ele>
        <time>2019-09-16T08:00:50Z</time>
      </trkpt>
      <trkpt lat="59.353890750173" lon="18.011892989365">
        <ele>31.2</ele>
        <time>2019-09-16T08:00:57Z</time>
      </trkpt>
      <trkpt lat="59.353810870666" lon="18.011707917013">
        <ele>32.4</ele>
        <time>2019-09-16T08:00:59Z</time>
      </trkpt>
      <trkpt lat="59.353570393955" lon="18.011196202018">
        <ele>33.6</ele>
        <time>2019-09-16T08:01:06Z</time>
      </trkpt>
      <trkpt lat="59.35351297794" lon="18.01109545158">
        <ele>34</ele>
        <time>2019-09-16T08:01:08Z</time>
      </trkpt>
      <trkpt lat="59.353379118997" lon="18.011216905311">
        <ele>33.8</ele>
        <time>2019-09-16T08:01:12Z</time>
      </trkpt>
      <trkpt lat="59.353345423759" lon="18.011369707348">
        <ele>33.4</ele>
        <time>2019-09-16T08:01:14Z</time>
      </trkpt>
      <trkpt lat="59.353212822101" lon="18.011419914929">
        <ele>33.2</ele>
        <time>2019-09-16T08:01:17Z</time>
      </trkpt>
      <trkpt lat="59.352670094076" lon="18.011177342743">
        <ele>32.4</ele>
        <time>2019-09-16T08:01:26Z</time>
      </trkpt>
      <trkpt lat="59.352538917341" lon="18.011141049116">
        <ele>32.2</ele>
        <time>2019-09-16T08:01:28Z</time>
      </trkpt>
      <trkpt lat="59.352301122838" lon="18.011076340848">
        <ele>31.4</ele>
        <time>2019-09-16T08:01:32Z</time>
      </trkpt>
      <trkpt lat="59.352115882848" lon="18.01105270389">
        <ele>30.4</ele>
        <time>2019-09-16T08:01:35Z</time>
      </trkpt>
      <trkpt lat="59.351886386426" lon="18.011010207657">
        <ele>32.4</ele>
        <time>2019-09-16T08:01:39Z</time>
      </trkpt>
      <trkpt lat="59.351774152785" lon="18.011025462715">
        <ele>34</ele>
        <time>2019-09-16T08:01:41Z</time>
      </trkpt>
      <trkpt lat="59.351657392918" lon="18.011046333646">
        <ele>34.6</ele>
        <time>2019-09-16T08:01:43Z</time>
      </trkpt>
      <trkpt lat="59.351127405381" lon="18.011360738715">
        <ele>33.8</ele>
        <time>2019-09-16T08:01:52Z</time>
      </trkpt>
      <trkpt lat="59.351067810072" lon="18.011420753119">
        <ele>34</ele>
        <time>2019-09-16T08:01:53Z</time>
      </trkpt>
      <trkpt lat="59.350925820686" lon="18.011604987281">
        <ele>35.2</ele>
        <time>2019-09-16T08:01:56Z</time>
      </trkpt>
      <trkpt lat="59.350687355631" lon="18.011829203106">
        <ele>34.2</ele>
        <time>2019-09-16T08:02:00Z</time>
      </trkpt>
      <trkpt lat="59.350547377901" lon="18.01192945063">
        <ele>32.8</ele>
        <time>2019-09-16T08:02:02Z</time>
      </trkpt>
      <trkpt lat="59.350298100195" lon="18.012044198841">
        <ele>31.8</ele>
        <time>2019-09-16T08:02:05Z</time>
      </trkpt>
      <trkpt lat="59.350115039499" lon="18.012054592397">
        <ele>31</ele>
        <time>2019-09-16T08:02:07Z</time>
      </trkpt>
      <trkpt lat="59.350020407848" lon="18.012037996235">
        <ele>30.6</ele>
        <time>2019-09-16T08:02:08Z</time>
      </trkpt>
      <trkpt lat="59.349846651061" lon="18.011950237742">
        <ele>29.6</ele>
        <time>2019-09-16T08:02:10Z</time>
      </trkpt>
      <trkpt lat="59.349687646418" lon="18.011799028266">
        <ele>28</ele>
        <time>2019-09-16T08:02:12Z</time>
      </trkpt>
      <trkpt lat="59.349614975345" lon="18.011710012488">
        <ele>27</ele>
        <time>2019-09-16T08:02:13Z</time>
      </trkpt>
      <trkpt lat="59.349554038932" lon="18.01160255653">
        <ele>26</ele>
        <time>2019-09-16T08:02:14Z</time>
      </trkpt>
      <trkpt lat="59.349384724552" lon="18.011267531987">
        <ele>24.8</ele>
        <time>2019-09-16T08:02:17Z</time>
      </trkpt>
      <trkpt lat="59.349143325832" lon="18.010883138053">
        <ele>24.6</ele>
        <time>2019-09-16T08:02:21Z</time>
      </trkpt>
      <trkpt lat="59.349005359758" lon="18.010433030023">
        <ele>23.6</ele>
        <time>2019-09-16T08:02:25Z</time>
      </trkpt>
      <trkpt lat="59.348804529434" lon="18.0096604703">
        <ele>24.8</ele>
        <time>2019-09-16T08:02:32Z</time>
      </trkpt>
      <trkpt lat="59.348790112566" lon="18.009552511428">
        <ele>25.2</ele>
        <time>2019-09-16T08:02:33Z</time>
      </trkpt>
      <trkpt lat="59.348800506122" lon="18.009342712471">
        <ele>25.6</ele>
        <time>2019-09-16T08:02:35Z</time>
      </trkpt>
      <trkpt lat="59.348820287406" lon="18.009239615101">
        <ele>26</ele>
        <time>2019-09-16T08:02:36Z</time>
      </trkpt>
      <trkpt lat="59.348835207188" lon="18.00913660155">
        <ele>26.2</ele>
        <time>2019-09-16T08:02:37Z</time>
      </trkpt>
      <trkpt lat="59.348828753125" lon="18.008928227516">
        <ele>26</ele>
        <time>2019-09-16T08:02:39Z</time>
      </trkpt>
      <trkpt lat="59.348781479209" lon="18.008737539291">
        <ele>25.8</ele>
        <time>2019-09-16T08:02:41Z</time>
      </trkpt>
      <trkpt lat="59.348671927776" lon="18.00858926348">
        <ele>25</ele>
        <time>2019-09-16T08:02:43Z</time>
      </trkpt>
      <trkpt lat="59.348627503706" lon="18.008534948768">
        <ele>24.4</ele>
        <time>2019-09-16T08:02:44Z</time>
      </trkpt>
      <trkpt lat="59.348598837608" lon="18.008514580751">
        <ele>24.2</ele>
        <time>2019-09-16T08:02:45Z</time>
      </trkpt>
      <trkpt lat="59.34821729352" lon="18.008966029885">
        <ele>23.6</ele>
        <time>2019-09-16T08:02:52Z</time>
      </trkpt>
      <trkpt lat="59.348157446754" lon="18.009036521664">
        <ele>23.4</ele>
        <time>2019-09-16T08:02:53Z</time>
      </trkpt>
      <trkpt lat="59.347864666987" lon="18.009249589562">
        <ele>22.8</ele>
        <time>2019-09-16T08:02:57Z</time>
      </trkpt>
      <trkpt lat="59.347612036521" lon="18.009241878214">
        <ele>22.2</ele>
        <time>2019-09-16T08:03:00Z</time>
      </trkpt>
      <trkpt lat="59.347270725553" lon="18.009067199418">
        <ele>20.6</ele>
        <time>2019-09-16T08:03:04Z</time>
      </trkpt>
      <trkpt lat="59.346870070733" lon="18.008710884849">
        <ele>19.2</ele>
        <time>2019-09-16T08:03:09Z</time>
      </trkpt>
      <trkpt lat="59.346620960665" lon="18.00851550276">
        <ele>18</ele>
        <time>2019-09-16T08:03:12Z</time>
      </trkpt>
      <trkpt lat="59.346448042068" lon="18.008387175871">
        <ele>16.6</ele>
        <time>2019-09-16T08:03:14Z</time>
      </trkpt>
      <trkpt lat="59.346199686371" lon="18.008200510958">
        <ele>15.6</ele>
        <time>2019-09-16T08:03:17Z</time>
      </trkpt>
      <trkpt lat="59.345650420464" lon="18.007785774546">
        <ele>15.8</ele>
        <time>2019-09-16T08:03:24Z</time>
      </trkpt>
      <trkpt lat="59.345135604166" lon="18.007423005914">
        <ele>15.6</ele>
        <time>2019-09-16T08:03:31Z</time>
      </trkpt>
      <trkpt lat="59.345006355268" lon="18.007334995964">
        <ele>15.8</ele>
        <time>2019-09-16T08:03:33Z</time>
      </trkpt>
      <trkpt lat="59.344857995638" lon="18.007288476419">
        <ele>16.8</ele>
        <time>2019-09-16T08:03:36Z</time>
      </trkpt>
      <trkpt lat="59.344702008479" lon="18.007270622972">
        <ele>17.4</ele>
        <time>2019-09-16T08:03:40Z</time>
      </trkpt>
      <trkpt lat="59.344608131199" lon="18.007306497504">
        <ele>16.6</ele>
        <time>2019-09-16T08:03:42Z</time>
      </trkpt>
      <trkpt lat="59.344518528688" lon="18.007341114751">
        <ele>16.2</ele>
        <time>2019-09-16T08:03:44Z</time>
      </trkpt>
      <trkpt lat="59.344366481022" lon="18.007371876324">
        <ele>16</ele>
        <time>2019-09-16T08:03:47Z</time>
      </trkpt>
      <trkpt lat="59.344250726983" lon="18.007437758058">
        <ele>15.6</ele>
        <time>2019-09-16T08:03:49Z</time>
      </trkpt>
      <trkpt lat="59.344161878843" lon="18.007492156589">
        <ele>15</ele>
        <time>2019-09-16T08:03:51Z</time>
      </trkpt>
      <trkpt lat="59.344122316275" lon="18.007525348913">
        <ele>14.6</ele>
        <time>2019-09-16T08:03:52Z</time>
      </trkpt>
      <trkpt lat="59.343701544895" lon="18.008038488831">
        <ele>14.2</ele>
        <time>2019-09-16T08:04:03Z</time>
      </trkpt>
      <trkpt lat="59.343514879982" lon="18.008399916359">
        <ele>14.4</ele>
        <time>2019-09-16T08:04:08Z</time>
      </trkpt>
      <trkpt lat="59.34333735134" lon="18.008867626379">
        <ele>14</ele>
        <time>2019-09-16T08:04:15Z</time>
      </trkpt>
      <trkpt lat="59.343233499599" lon="18.009278842393">
        <ele>15.6</ele>
        <time>2019-09-16T08:04:23Z</time>
      </trkpt>
      <trkpt lat="59.343193517936" lon="18.009413455707">
        <ele>15.6</ele>
        <time>2019-09-16T08:04:24Z</time>
      </trkpt>
      <trkpt lat="59.343104166882" lon="18.009547649926">
        <ele>17</ele>
        <time>2019-09-16T08:04:28Z</time>
      </trkpt>
      <trkpt lat="59.342807866717" lon="18.009621578284">
        <ele>18.2</ele>
        <time>2019-09-16T08:04:33Z</time>
      </trkpt>
      <trkpt lat="59.342264635778" lon="18.009802794962">
        <ele>19</ele>
        <time>2019-09-16T08:04:46Z</time>
      </trkpt>
      <trkpt lat="59.341883343147" lon="18.010405872667">
        <ele>19.2</ele>
        <time>2019-09-16T08:04:58Z</time>
      </trkpt>
      <trkpt lat="59.341673963285" lon="18.010792697352">
        <ele>19</ele>
        <time>2019-09-16T08:05:03Z</time>
      </trkpt>
      <trkpt lat="59.34147740773" lon="18.011045076361">
        <ele>19.2</ele>
        <time>2019-09-16T08:05:06Z</time>
      </trkpt>
      <trkpt lat="59.341323264589" lon="18.011379178895">
        <ele>19.8</ele>
        <time>2019-09-16T08:05:09Z</time>
      </trkpt>
      <trkpt lat="59.341242463073" lon="18.011630300619">
        <ele>19.8</ele>
        <time>2019-09-16T08:05:11Z</time>
      </trkpt>
      <trkpt lat="59.341053032133" lon="18.012589357617">
        <ele>19</ele>
        <time>2019-09-16T08:05:19Z</time>
      </trkpt>
      <trkpt lat="59.340980947793" lon="18.012750373916">
        <ele>19.6</ele>
        <time>2019-09-16T08:05:21Z</time>
      </trkpt>
      <trkpt lat="59.340864607021" lon="18.012805694456">
        <ele>20.2</ele>
        <time>2019-09-16T08:05:23Z</time>
      </trkpt>
      <trkpt lat="59.34061155746" lon="18.01277099339">
        <ele>21.2</ele>
        <time>2019-09-16T08:05:27Z</time>
      </trkpt>
      <trkpt lat="59.340392454594" lon="18.012754648685">
        <ele>20.8</ele>
        <time>2019-09-16T08:05:33Z</time>
      </trkpt>
      <trkpt lat="59.34028885431" lon="18.012890770741">
        <ele>20.2</ele>
        <time>2019-09-16T08:05:36Z</time>
      </trkpt>
      <trkpt lat="59.340233869046" lon="18.013077016559">
        <ele>19.6</ele>
        <time>2019-09-16T08:05:38Z</time>
      </trkpt>
      <trkpt lat="59.340173603185" lon="18.013373316724">
        <ele>19.2</ele>
        <time>2019-09-16T08:05:41Z</time>
      </trkpt>
      <trkpt lat="59.34004158826" lon="18.013744634894">
        <ele>18.6</ele>
        <time>2019-09-16T08:05:45Z</time>
      </trkpt>
      <trkpt lat="59.339956763432" lon="18.013941777182">
        <ele>18</ele>
        <time>2019-09-16T08:05:47Z</time>
      </trkpt>
      <trkpt lat="59.33981443877" lon="18.01430991023">
        <ele>17</ele>
        <time>2019-09-16T08:05:50Z</time>
      </trkpt>
      <trkpt lat="59.339723578974" lon="18.014499927903">
        <ele>16.4</ele>
        <time>2019-09-16T08:05:52Z</time>
      </trkpt>
      <trkpt lat="59.339414789778" lon="18.014938971825">
        <ele>18.2</ele>
        <time>2019-09-16T08:05:58Z</time>
      </trkpt>
      <trkpt lat="59.33934505237" lon="18.015211048299">
        <ele>19</ele>
        <time>2019-09-16T08:06:00Z</time>
      </trkpt>
      <trkpt lat="59.339301550309" lon="18.015323533397">
        <ele>19.4</ele>
        <time>2019-09-16T08:06:01Z</time>
      </trkpt>
      <trkpt lat="59.339257461515" lon="18.015305428493">
        <ele>19.6</ele>
        <time>2019-09-16T08:06:02Z</time>
      </trkpt>
      <trkpt lat="59.339208511219" lon="18.015190093549">
        <ele>20</ele>
        <time>2019-09-16T08:06:04Z</time>
      </trkpt>
      <trkpt lat="59.339195351636" lon="18.015114488811">
        <ele>20.4</ele>
        <time>2019-09-16T08:06:05Z</time>
      </trkpt>
      <trkpt lat="59.339157213991" lon="18.014970655407">
        <ele>22</ele>
        <time>2019-09-16T08:06:07Z</time>
      </trkpt>
      <trkpt lat="59.339126871513" lon="18.014844423993">
        <ele>23.2</ele>
        <time>2019-09-16T08:06:09Z</time>
      </trkpt>
      <trkpt lat="59.339040286486" lon="18.014588440767">
        <ele>24.4</ele>
        <time>2019-09-16T08:06:13Z</time>
      </trkpt>
      <trkpt lat="59.339018661184" lon="18.0145303542">
        <ele>24.8</ele>
        <time>2019-09-16T08:06:14Z</time>
      </trkpt>
      <trkpt lat="59.338960155522" lon="18.014314436456">
        <ele>25.6</ele>
        <time>2019-09-16T08:06:18Z</time>
      </trkpt>
      <trkpt lat="59.338843730931" lon="18.014120227833">
        <ele>26.6</ele>
        <time>2019-09-16T08:06:24Z</time>
      </trkpt>
      <trkpt lat="59.338716158413" lon="18.013874721982">
        <ele>27.8</ele>
        <time>2019-09-16T08:06:29Z</time>
      </trkpt>
      <trkpt lat="59.338698221147" lon="18.013617313833">
        <ele>29</ele>
        <time>2019-09-16T08:06:32Z</time>
      </trkpt>
      <trkpt lat="59.338707944151" lon="18.013490495686">
        <ele>30.2</ele>
        <time>2019-09-16T08:06:34Z</time>
      </trkpt>
      <trkpt lat="59.338671063791" lon="18.013106185571">
        <ele>31.6</ele>
        <time>2019-09-16T08:06:37Z</time>
      </trkpt>
      <trkpt lat="59.338610295016" lon="18.012835198744">
        <ele>31.8</ele>
        <time>2019-09-16T08:06:40Z</time>
      </trkpt>
      <trkpt lat="59.338498312832" lon="18.012705698389">
        <ele>31.4</ele>
        <time>2019-09-16T08:06:42Z</time>
      </trkpt>
      <trkpt lat="59.338411811624" lon="18.012670997323">
        <ele>30.6</ele>
        <time>2019-09-16T08:06:44Z</time>
      </trkpt>
      <trkpt lat="59.338376691463" lon="18.012678121938">
        <ele>30.4</ele>
        <time>2019-09-16T08:06:45Z</time>
      </trkpt>
      <trkpt lat="59.338141327711" lon="18.012646354537">
        <ele>31.8</ele>
        <time>2019-09-16T08:06:51Z</time>
      </trkpt>
      <trkpt lat="59.337884254838" lon="18.012720953447">
        <ele>33</ele>
        <time>2019-09-16T08:06:56Z</time>
      </trkpt>
      <trkpt lat="59.337845027546" lon="18.012756660341">
        <ele>33</ele>
        <time>2019-09-16T08:06:57Z</time>
      </trkpt>
      <trkpt lat="59.337701445599" lon="18.012882221203">
        <ele>33.2</ele>
        <time>2019-09-16T08:07:01Z</time>
      </trkpt>
      <trkpt lat="59.337391566756" lon="18.013075172541">
        <ele>33.6</ele>
        <time>2019-09-16T08:07:07Z</time>
      </trkpt>
      <trkpt lat="59.337305317005" lon="18.013145412863">
        <ele>34</ele>
        <time>2019-09-16T08:07:09Z</time>
      </trkpt>
      <trkpt lat="59.337114042047" lon="18.013148765623">
        <ele>34</ele>
        <time>2019-09-16T08:07:13Z</time>
      </trkpt>
      <trkpt lat="59.337023182251" lon="18.013251695355">
        <ele>34</ele>
        <time>2019-09-16T08:07:15Z</time>
      </trkpt>
      <trkpt lat="59.336888652756" lon="18.013510947522">
        <ele>33</ele>
        <time>2019-09-16T08:07:19Z</time>
      </trkpt>
      <trkpt lat="59.336854286966" lon="18.013574733781">
        <ele>32.8</ele>
        <time>2019-09-16T08:07:20Z</time>
      </trkpt>
      <trkpt lat="59.336742053325" lon="18.01376843949">
        <ele>32.4</ele>
        <time>2019-09-16T08:07:23Z</time>
      </trkpt>
      <trkpt lat="59.336565865787" lon="18.013928617599">
        <ele>32</ele>
        <time>2019-09-16T08:07:26Z</time>
      </trkpt>
      <trkpt lat="59.336512305446" lon="18.013994918428">
        <ele>31.4</ele>
        <time>2019-09-16T08:07:27Z</time>
      </trkpt>
      <trkpt lat="59.336390097344" lon="18.014160293315">
        <ele>30.4</ele>
        <time>2019-09-16T08:07:30Z</time>
      </trkpt>
      <trkpt lat="59.33629823172" lon="18.014379731457">
        <ele>28.8</ele>
        <time>2019-09-16T08:07:32Z</time>
      </trkpt>
      <trkpt lat="59.336218436032" lon="18.014450139417">
        <ele>28.4</ele>
        <time>2019-09-16T08:07:33Z</time>
      </trkpt>
      <trkpt lat="59.335944599359" lon="18.014242938849">
        <ele>27.6</ele>
        <time>2019-09-16T08:07:38Z</time>
      </trkpt>
      <trkpt lat="59.335895397606" lon="18.014170686871">
        <ele>26.6</ele>
        <time>2019-09-16T08:07:39Z</time>
      </trkpt>
      <trkpt lat="59.335843681283" lon="18.014110085734">
        <ele>25.2</ele>
        <time>2019-09-16T08:07:40Z</time>
      </trkpt>
      <trkpt lat="59.335800011584" lon="18.014040180688">
        <ele>23.8</ele>
        <time>2019-09-16T08:07:41Z</time>
      </trkpt>
      <trkpt lat="59.335728933072" lon="18.013907327573">
        <ele>22.2</ele>
        <time>2019-09-16T08:07:43Z</time>
      </trkpt>
      <trkpt lat="59.335661039682" lon="18.013777827218">
        <ele>21</ele>
        <time>2019-09-16T08:07:46Z</time>
      </trkpt>
      <trkpt lat="59.335504633428" lon="18.013468032194">
        <ele>22.2</ele>
        <time>2019-09-16T08:07:54Z</time>
      </trkpt>
    </trkseg>
  </trk>
</gpx>